Time;durP1;ratioP1;P1;durP2;ratioP2;P2;SDS_P1;SDS_P2;PMS_P1;PMS_P2;Temp;Humidity;BMP_temperature;BMP_pressure;BME280_temperature;BME280_humidity;BME280_pressure;Samples;Min_cycle;Max_cycle;Signal;HPM_P1;HPM_P2
2021/08/11 00:04:29;;;;;;;0.10;0.10;;;;;;;;;;10540654;28;20055;-20
2021/08/11 00:09:34;;;;;;;0.08;0.08;;;;;;;;;;10539646;28;20047;-20
2021/08/11 00:14:37;;;;;;;0.00;0.00;;;;;;;;;;10542566;28;20530;-20
2021/08/11 00:19:40;;;;;;;0.00;0.00;;;;;;;;;;10536890;28;20032;-20
2021/08/11 00:24:44;;;;;;;0.00;0.00;;;;;;;;;;10537345;28;20059;-20
2021/08/11 00:29:46;;;;;;;0.00;0.00;;;;;;;;;;10537544;28;20047;-20
2021/08/11 00:34:49;;;;;;;0.00;0.00;;;;;;;;;;10523903;28;20052;-20
2021/08/11 00:39:54;;;;;;;0.00;0.00;;;;;;;;;;10544166;28;20492;-20
2021/08/11 00:45:00;;;;;;;0.00;0.00;;;;;;;;;;10523577;28;20044;-20
2021/08/11 00:50:04;;;;;;;0.00;0.00;;;;;;;;;;10520643;28;20044;-20
2021/08/11 00:55:09;;;;;;;0.00;0.00;;;;;;;;;;10538524;28;20101;-21
2021/08/11 01:00:14;;;;;;;0.00;0.00;;;;;;;;;;10505877;28;20063;-20
2021/08/11 01:05:19;;;;;;;0.00;0.00;;;;;;;;;;10509469;28;20052;-20
2021/08/11 01:10:23;;;;;;;0.00;0.00;;;;;;;;;;10514314;28;20055;-20
2021/08/11 01:15:27;;;;;;;0.00;0.00;;;;;;;;;;10520148;28;20056;-20
2021/08/11 01:20:31;;;;;;;0.00;0.00;;;;;;;;;;10514538;28;20048;-20
2021/08/11 01:25:38;;;;;;;0.00;0.00;;;;;;;;;;10537305;28;20377;-20
2021/08/11 01:30:45;;;;;;;0.00;0.00;;;;;;;;;;10549186;28;20040;-20
2021/08/11 01:35:53;;;;;;;0.00;0.00;;;;;;;;;;10513825;28;20054;-20
2021/08/11 01:41:00;;;;;;;1.35;0.50;;;;;;;;;;10520719;28;20126;-20
2021/08/11 01:46:05;;;;;;;3.97;1.38;;;;;;;;;;10520703;28;20071;-20
2021/08/11 01:51:11;;;;;;;0.13;0.10;;;;;;;;;;10525343;28;20036;-20
2021/08/11 01:56:14;;;;;;;0.28;0.10;;;;;;;;;;10522824;28;20366;-20
2021/08/11 02:01:23;;;;;;;0.00;0.00;;;;;;;;;;10527031;28;20044;-20
2021/08/11 02:06:29;;;;;;;0.10;0.10;;;;;;;;;;10522298;28;20083;-20
2021/08/11 02:11:41;;;;;;;0.20;0.10;;;;;;;;;;10525350;28;20044;-20
2021/08/11 02:16:44;;;;;;;0.60;0.25;;;;;;;;;;10526517;28;20441;-20
2021/08/11 02:21:48;;;;;;;1.92;0.60;;;;;;;;;;10527140;28;20404;-20
2021/08/11 02:26:53;;;;;;;6.05;2.00;;;;;;;;;;10525585;28;20413;-20
2021/08/11 02:32:00;;;;;;;6.40;2.03;;;;;;;;;;10563129;27;20400;-20
2021/08/11 02:37:09;;;;;;;6.20;2.00;;;;;;;;;;10522285;28;20052;-20
2021/08/11 02:42:14;;;;;;;12.38;3.42;;;;;;;;;;10527954;28;20044;-20
2021/08/11 02:47:18;;;;;;;9.75;2.75;;;;;;;;;;10520838;28;20474;-20
2021/08/11 02:52:22;;;;;;;5.18;1.30;;;;;;;;;;10531439;28;20045;-23
2021/08/11 02:57:25;;;;;;;3.25;1.05;;;;;;;;;;10505070;28;20044;-23
2021/08/11 03:02:29;;;;;;;4.07;1.25;;;;;;;;;;10521522;28;20071;-22
2021/08/11 03:07:34;;;;;;;1.42;0.50;;;;;;;;;;10515039;28;20047;-23
2021/08/11 03:12:37;;;;;;;1.33;0.47;;;;;;;;;;10509527;28;20052;-23
2021/08/11 03:17:40;;;;;;;4.68;1.42;;;;;;;;;;10549022;27;20125;-23
2021/08/11 03:22:46;;;;;;;3.55;1.00;;;;;;;;;;10521844;28;20048;-23
2021/08/11 03:27:49;;;;;;;3.85;1.20;;;;;;;;;;10515980;28;20043;-22
2021/08/11 03:32:55;;;;;;;5.03;1.45;;;;;;;;;;10520863;28;20040;-23
2021/08/11 03:38:02;;;;;;;5.47;1.52;;;;;;;;;;10514508;28;20048;-23
2021/08/11 03:43:05;;;;;;;4.35;1.40;;;;;;;;;;10518861;28;20048;-23
2021/08/11 03:48:08;;;;;;;2.33;0.70;;;;;;;;;;10519965;28;20052;-23
2021/08/11 03:53:15;;;;;;;3.50;0.85;;;;;;;;;;10516022;28;20044;-22
2021/08/11 03:58:18;;;;;;;1.08;0.30;;;;;;;;;;10493417;28;20121;-23
2021/08/11 04:03:21;;;;;;;0.40;0.28;;;;;;;;;;10499909;28;20186;-23
2021/08/11 04:08:25;;;;;;;3.17;0.98;;;;;;;;;;10515257;28;20052;-23
2021/08/11 04:13:28;;;;;;;2.45;0.60;;;;;;;;;;10515582;28;20057;-23
2021/08/11 04:18:30;;;;;;;1.88;0.50;;;;;;;;;;10514435;28;20052;-23
2021/08/11 04:23:34;;;;;;;3.30;0.80;;;;;;;;;;10512266;28;20197;-23
2021/08/11 04:28:37;;;;;;;2.55;0.80;;;;;;;;;;10510326;28;20094;-23
2021/08/11 04:33:39;;;;;;;0.98;0.28;;;;;;;;;;10520728;28;20105;-23
2021/08/11 04:38:43;;;;;;;4.32;0.90;;;;;;;;;;10516377;28;20052;-22
2021/08/11 04:43:46;;;;;;;1.15;0.32;;;;;;;;;;10484241;28;20052;-22
2021/08/11 04:48:49;;;;;;;1.00;0.30;;;;;;;;;;10506215;28;20501;-22
2021/08/11 04:53:53;;;;;;;1.50;0.32;;;;;;;;;;10505700;28;20048;-22
2021/08/11 04:58:56;;;;;;;3.00;0.93;;;;;;;;;;10504917;28;20125;-23
2021/08/11 05:03:58;;;;;;;2.60;0.75;;;;;;;;;;10516852;28;20052;-23
2021/08/11 05:09:03;;;;;;;4.28;0.93;;;;;;;;;;10506655;28;20074;-23
2021/08/11 05:14:05;;;;;;;3.55;1.00;;;;;;;;;;10506147;28;20105;-22
2021/08/11 05:19:08;;;;;;;2.97;0.85;;;;;;;;;;10510141;28;21373;-22
2021/08/11 05:24:12;;;;;;;5.90;1.50;;;;;;;;;;10512550;28;20056;-22
2021/08/11 05:29:15;;;;;;;4.13;1.45;;;;;;;;;;10519043;28;20098;-20
2021/08/11 05:34:17;;;;;;;3.35;0.95;;;;;;;;;;10517780;28;20052;-20
2021/08/11 05:39:21;;;;;;;2.85;0.80;;;;;;;;;;10521264;28;20506;-20
2021/08/11 05:44:25;;;;;;;2.75;0.88;;;;;;;;;;10517439;28;20053;-20
2021/08/11 05:49:28;;;;;;;3.28;1.02;;;;;;;;;;10515736;28;20470;-20
2021/08/11 05:54:33;;;;;;;4.70;1.42;;;;;;;;;;10532631;28;20097;-20
2021/08/11 05:59:36;;;;;;;2.33;0.70;;;;;;;;;;10551571;28;20039;-20
2021/08/11 06:04:38;;;;;;;1.70;0.50;;;;;;;;;;10544252;28;20496;-21
2021/08/11 06:09:42;;;;;;;0.40;0.10;;;;;;;;;;10538103;28;20040;-20
2021/08/11 06:14:46;;;;;;;0.00;0.00;;;;;;;;;;10548758;28;20046;-20
2021/08/11 06:19:49;;;;;;;0.08;0.08;;;;;;;;;;10528423;28;20044;-20
2021/08/11 06:24:53;;;;;;;0.22;0.10;;;;;;;;;;10530337;28;20040;-20
2021/08/11 06:29:56;;;;;;;0.10;0.10;;;;;;;;;;10526176;28;20070;-20
2021/08/11 06:34:58;;;;;;;0.00;0.00;;;;;;;;;;10546696;28;20051;-20
2021/08/11 06:40:03;;;;;;;0.00;0.00;;;;;;;;;;10530008;28;20048;-20
2021/08/11 06:45:06;;;;;;;0.00;0.00;;;;;;;;;;10527160;28;20054;-20
2021/08/11 06:50:10;;;;;;;0.00;0.00;;;;;;;;;;10526885;28;20366;-20
2021/08/11 06:55:14;;;;;;;0.00;0.00;;;;;;;;;;10529301;28;20499;-21
2021/08/11 07:00:17;;;;;;;0.00;0.00;;;;;;;;;;10532717;28;20059;-20
2021/08/11 07:05:20;;;;;;;0.00;0.00;;;;;;;;;;10550569;28;20633;-20
2021/08/11 07:10:24;;;;;;;0.00;0.00;;;;;;;;;;10535722;28;20055;-20
2021/08/11 07:15:27;;;;;;;0.00;0.00;;;;;;;;;;10541009;28;20054;-19
2021/08/11 07:20:31;;;;;;;0.00;0.00;;;;;;;;;;10539085;28;20120;-20
2021/08/11 07:25:35;;;;;;;0.00;0.00;;;;;;;;;;10522919;28;20452;-20
2021/08/11 07:30:41;;;;;;;0.10;0.10;;;;;;;;;;10542436;28;20047;-20
2021/08/11 07:35:45;;;;;;;0.00;0.00;;;;;;;;;;10542458;28;20040;-20
2021/08/11 07:40:49;;;;;;;0.00;0.00;;;;;;;;;;10544605;28;20036;-20
2021/08/11 07:45:52;;;;;;;0.00;0.00;;;;;;;;;;10526651;28;20052;-20
2021/08/11 07:51:08;;;;;;;0.10;0.00;;;;;;;;;;10527210;28;20048;-22
2021/08/11 07:56:13;;;;;;;0.00;0.00;;;;;;;;;;10527269;28;20059;-20
2021/08/11 08:01:16;;;;;;;0.00;0.00;;;;;;;;;;10529472;28;20760;-20
2021/08/11 08:06:19;;;;;;;0.00;0.00;;;;;;;;;;10530899;28;20261;-20
2021/08/11 08:11:24;;;;;;;0.00;0.00;;;;;;;;;;10523106;28;20159;-20
2021/08/11 08:16:27;;;;;;;0.00;0.00;;;;;;;;;;10526262;28;20405;-20
2021/08/11 08:21:30;;;;;;;0.00;0.00;;;;;;;;;;10525079;28;20051;-20
2021/08/11 08:26:34;;;;;;;0.00;0.00;;;;;;;;;;10536648;28;20059;-20
2021/08/11 08:31:37;;;;;;;0.00;0.00;;;;;;;;;;10528149;28;20044;-20
2021/08/11 08:36:40;;;;;;;0.00;0.00;;;;;;;;;;10537848;28;20130;-20
2021/08/11 08:41:45;;;;;;;0.00;0.00;;;;;;;;;;10540385;28;20402;-21
2021/08/11 08:46:48;;;;;;;0.00;0.00;;;;;;;;;;10533224;28;20044;-21
2021/08/11 08:51:53;;;;;;;0.00;0.00;;;;;;;;;;10525307;28;20044;-21
2021/08/11 08:56:57;;;;;;;0.00;0.00;;;;;;;;;;10535210;28;20058;-21
2021/08/11 09:01:59;;;;;;;0.00;0.00;;;;;;;;;;10547538;28;20047;-20
2021/08/11 09:07:05;;;;;;;0.08;0.00;;;;;;;;;;10530603;28;20086;-21
2021/08/11 09:12:10;;;;;;;0.00;0.00;;;;;;;;;;10524215;28;20048;-20
2021/08/11 09:17:14;;;;;;;0.00;0.00;;;;;;;;;;10524970;28;20044;-21
2021/08/11 09:22:17;;;;;;;0.00;0.00;;;;;;;;;;10527179;28;20036;-21
2021/08/11 09:27:23;;;;;;;0.00;0.00;;;;;;;;;;10530271;28;20048;-21
2021/08/11 09:32:26;;;;;;;0.00;0.00;;;;;;;;;;10532111;28;20043;-20
2021/08/11 09:37:39;;;;;;;0.00;0.00;;;;;;;;;;10536711;28;20055;-20
2021/08/11 09:42:44;;;;;;;0.00;0.00;;;;;;;;;;10534608;28;20068;-20
2021/08/11 09:47:57;;;;;;;0.00;0.00;;;;;;;;;;10546610;28;20054;-20
2021/08/11 09:52:59;;;;;;;0.00;0.00;;;;;;;;;;10544408;28;20044;-20
2021/08/11 09:58:18;;;;;;;0.00;0.00;;;;;;;;;;10525010;28;20036;-20
2021/08/11 10:03:22;;;;;;;0.00;0.00;;;;;;;;;;10540347;28;20158;-21
2021/08/11 10:08:32;;;;;;;0.00;0.00;;;;;;;;;;10543360;28;20117;-20
2021/08/11 10:13:40;;;;;;;0.00;0.00;;;;;;;;;;10543496;28;20378;-20
2021/08/11 10:18:44;;;;;;;0.00;0.00;;;;;;;;;;10554680;28;20106;-21
2021/08/11 10:23:47;;;;;;;0.00;0.00;;;;;;;;;;10553131;28;20043;-20
2021/08/11 10:28:51;;;;;;;0.10;0.00;;;;;;;;;;10560410;28;20366;-21
2021/08/11 10:33:54;;;;;;;0.00;0.00;;;;;;;;;;10545830;28;20043;-20
2021/08/11 10:38:58;;;;;;;0.00;0.00;;;;;;;;;;10540354;28;20958;-20
2021/08/11 10:44:03;;;;;;;0.00;0.00;;;;;;;;;;10557172;28;20376;-20
2021/08/11 10:49:07;;;;;;;0.00;0.00;;;;;;;;;;10527970;28;20051;-21
2021/08/11 10:54:11;;;;;;;0.00;0.00;;;;;;;;;;10543650;28;20769;-20
2021/08/11 10:59:41;;;;;;;0.00;0.00;;;;;;;;;;10547469;28;20074;-20
2021/08/11 11:04:46;;;;;;;0.00;0.00;;;;;;;;;;10529535;28;20090;-21
2021/08/11 11:10:09;;;;;;;0.00;0.00;;;;;;;;;;10525128;28;20032;-21
2021/08/11 11:15:13;;;;;;;0.00;0.00;;;;;;;;;;10520360;28;20040;-20
2021/08/11 11:20:17;;;;;;;0.00;0.00;;;;;;;;;;10524746;28;20047;-20
2021/08/11 11:25:20;;;;;;;0.00;0.00;;;;;;;;;;10531317;28;20050;-21
2021/08/11 11:30:38;;;;;;;0.00;0.00;;;;;;;;;;10524495;28;20083;-21
2021/08/11 11:35:41;;;;;;;0.00;0.00;;;;;;;;;;10529368;28;20493;-21
2021/08/11 11:40:58;;;;;;;0.00;0.00;;;;;;;;;;10524883;28;20044;-21
2021/08/11 11:46:03;;;;;;;0.30;0.00;;;;;;;;;;10528332;28;20058;-21
2021/08/11 11:51:05;;;;;;;0.00;0.00;;;;;;;;;;10522995;28;20047;-20
2021/08/11 11:56:10;;;;;;;0.00;0.00;;;;;;;;;;10526294;28;20469;-24
2021/08/11 12:01:14;;;;;;;0.00;0.00;;;;;;;;;;10521628;28;20048;-25
2021/08/11 12:06:33;;;;;;;0.00;0.00;;;;;;;;;;10522584;28;20036;-22
2021/08/11 12:11:36;;;;;;;0.00;0.00;;;;;;;;;;10520547;28;20051;-21
2021/08/11 12:16:42;;;;;;;0.00;0.00;;;;;;;;;;10516781;28;20398;-21
2021/08/11 12:21:47;;;;;;;0.00;0.00;;;;;;;;;;10508209;28;20051;-21
2021/08/11 12:26:52;;;;;;;0.00;0.00;;;;;;;;;;10511797;28;20052;-25
2021/08/11 12:31:56;;;;;;;0.10;0.00;;;;;;;;;;10490589;28;20044;-24
2021/08/11 12:36:58;;;;;;;0.00;0.00;;;;;;;;;;10505689;28;20040;-25
2021/08/11 12:42:02;;;;;;;0.00;0.00;;;;;;;;;;10516196;28;20829;-24
2021/08/11 12:47:10;;;;;;;0.00;0.00;;;;;;;;;;10505300;28;20043;-25
2021/08/11 12:52:17;;;;;;;0.00;0.00;;;;;;;;;;10515772;28;20452;-24
2021/08/11 12:57:26;;;;;;;0.30;0.00;;;;;;;;;;10534190;28;20098;-25
2021/08/11 13:02:30;;;;;;;0.00;0.00;;;;;;;;;;10533405;28;20048;-24
2021/08/11 13:07:36;;;;;;;0.00;0.00;;;;;;;;;;10535234;28;20039;-25
2021/08/11 13:12:40;;;;;;;0.00;0.00;;;;;;;;;;10514140;28;20036;-25
2021/08/11 13:17:50;;;;;;;0.00;0.00;;;;;;;;;;10527130;28;20040;-25
2021/08/11 13:22:55;;;;;;;0.00;0.00;;;;;;;;;;10523481;28;20051;-25
2021/08/11 13:27:58;;;;;;;0.00;0.00;;;;;;;;;;10517901;28;20517;-25
2021/08/11 13:33:03;;;;;;;0.00;0.00;;;;;;;;;;10514623;28;20045;-25
2021/08/11 13:38:07;;;;;;;0.03;0.00;;;;;;;;;;10514213;28;20043;-24
2021/08/11 13:43:10;;;;;;;0.00;0.00;;;;;;;;;;10520636;28;20040;-24
2021/08/11 13:48:14;;;;;;;0.00;0.00;;;;;;;;;;10525188;28;20048;-24
2021/08/11 13:53:17;;;;;;;0.00;0.00;;;;;;;;;;10520941;28;20056;-24
2021/08/11 13:58:20;;;;;;;0.00;0.00;;;;;;;;;;10525018;28;20047;-25
2021/08/11 14:03:24;;;;;;;0.00;0.00;;;;;;;;;;10526472;28;20547;-25
2021/08/11 14:08:27;;;;;;;0.00;0.00;;;;;;;;;;10522439;28;20460;-25
2021/08/11 14:13:30;;;;;;;0.00;0.00;;;;;;;;;;10524825;28;20044;-24
2021/08/11 14:18:34;;;;;;;0.00;0.00;;;;;;;;;;10523976;28;20047;-23
2021/08/11 14:23:38;;;;;;;0.00;0.00;;;;;;;;;;10520673;28;20186;-25
2021/08/11 14:28:40;;;;;;;0.00;0.00;;;;;;;;;;10523899;28;20044;-25
2021/08/11 14:33:45;;;;;;;0.00;0.00;;;;;;;;;;10522407;28;20078;-25
2021/08/11 14:38:49;;;;;;;0.00;0.00;;;;;;;;;;10523267;28;20057;-25
2021/08/11 14:43:52;;;;;;;0.00;0.00;;;;;;;;;;10520632;28;20050;-23
2021/08/11 14:48:56;;;;;;;0.00;0.00;;;;;;;;;;10529391;28;20044;-24
2021/08/11 14:54:00;;;;;;;0.00;0.00;;;;;;;;;;10525338;28;20047;-25
2021/08/11 14:59:03;;;;;;;0.00;0.00;;;;;;;;;;10522787;28;20028;-23
2021/08/11 15:04:08;;;;;;;0.00;0.00;;;;;;;;;;10531322;28;20582;-24
2021/08/11 15:09:11;;;;;;;0.00;0.00;;;;;;;;;;10518214;28;20036;-24
2021/08/11 15:14:14;;;;;;;0.00;0.00;;;;;;;;;;10518655;28;20040;-24
2021/08/11 15:19:19;;;;;;;0.25;0.00;;;;;;;;;;10519409;28;20047;-25
2021/08/11 15:24:23;;;;;;;0.00;0.00;;;;;;;;;;10520464;28;20393;-25
2021/08/11 15:29:26;;;;;;;0.00;0.00;;;;;;;;;;10516072;28;20550;-25
2021/08/11 15:34:30;;;;;;;0.00;0.00;;;;;;;;;;10522048;28;20477;-25
2021/08/11 15:39:35;;;;;;;0.00;0.00;;;;;;;;;;10519997;28;20044;-23
2021/08/11 15:44:37;;;;;;;0.00;0.00;;;;;;;;;;10519371;28;20048;-23
2021/08/11 15:49:41;;;;;;;0.00;0.00;;;;;;;;;;10517106;28;20055;-23
2021/08/11 15:54:44;;;;;;;0.00;0.00;;;;;;;;;;10516490;28;20063;-24
2021/08/11 15:59:48;;;;;;;0.00;0.00;;;;;;;;;;10516054;28;20549;-25
2021/08/11 16:04:52;;;;;;;0.00;0.00;;;;;;;;;;10518488;28;20066;-24
2021/08/11 16:09:54;;;;;;;0.00;0.00;;;;;;;;;;10514283;28;20060;-24
2021/08/11 16:14:57;;;;;;;0.00;0.00;;;;;;;;;;10514947;28;20044;-24
2021/08/11 16:20:01;;;;;;;0.00;0.00;;;;;;;;;;10518204;28;20067;-24
2021/08/11 16:25:04;;;;;;;0.00;0.00;;;;;;;;;;10516555;28;20052;-23
2021/08/11 16:30:08;;;;;;;0.00;0.00;;;;;;;;;;10516062;28;20055;-24
2021/08/11 16:35:12;;;;;;;0.00;0.00;;;;;;;;;;10513465;28;20036;-24
2021/08/11 16:40:16;;;;;;;0.00;0.00;;;;;;;;;;10522517;28;20077;-23
2021/08/11 16:45:19;;;;;;;0.00;0.00;;;;;;;;;;10510774;28;20504;-24
2021/08/11 16:50:23;;;;;;;0.00;0.00;;;;;;;;;;10521318;28;20413;-27
2021/08/11 16:55:26;;;;;;;0.00;0.00;;;;;;;;;;10517611;28;20293;-24
2021/08/11 17:00:29;;;;;;;0.00;0.00;;;;;;;;;;10522041;28;20044;-25
2021/08/11 17:05:33;;;;;;;0.00;0.00;;;;;;;;;;10519384;28;20043;-25
2021/08/11 17:10:37;;;;;;;0.00;0.00;;;;;;;;;;10497176;28;20412;-25
2021/08/11 17:15:40;;;;;;;0.00;0.00;;;;;;;;;;10520319;28;20039;-26
2021/08/11 17:20:44;;;;;;;0.00;0.00;;;;;;;;;;10509697;28;20048;-24
2021/08/11 17:25:47;;;;;;;0.00;0.00;;;;;;;;;;10525521;28;20266;-25
2021/08/11 17:30:50;;;;;;;0.00;0.00;;;;;;;;;;10531347;28;20381;-30
2021/08/11 17:35:54;;;;;;;0.00;0.00;;;;;;;;;;10525932;28;20055;-27
2021/08/11 17:40:57;;;;;;;0.00;0.00;;;;;;;;;;10533480;28;20040;-25
2021/08/11 17:45:59;;;;;;;0.00;0.00;;;;;;;;;;10537652;28;20516;-26
2021/08/11 17:51:03;;;;;;;0.00;0.00;;;;;;;;;;10529497;28;20146;-26
2021/08/11 17:56:06;;;;;;;0.00;0.00;;;;;;;;;;10530990;28;20060;-25
2021/08/11 18:01:09;;;;;;;0.00;0.00;;;;;;;;;;10524411;28;20052;-25
2021/08/11 18:06:13;;;;;;;0.00;0.00;;;;;;;;;;10527535;28;20063;-25
2021/08/11 18:11:22;;;;;;;0.00;0.00;;;;;;;;;;10530789;27;20528;-25
2021/08/11 18:16:25;;;;;;;0.00;0.00;;;;;;;;;;10526871;28;20524;-25
2021/08/11 18:21:30;;;;;;;0.00;0.00;;;;;;;;;;10513945;28;20134;-24
2021/08/11 18:26:32;;;;;;;0.00;0.00;;;;;;;;;;10521086;28;20059;-25
2021/08/11 18:31:36;;;;;;;0.00;0.00;;;;;;;;;;10520853;28;20048;-25
2021/08/11 18:36:41;;;;;;;0.00;0.00;;;;;;;;;;10518729;28;20510;-25
2021/08/11 18:41:44;;;;;;;0.08;0.00;;;;;;;;;;10533843;28;20059;-25
2021/08/11 18:46:47;;;;;;;0.00;0.00;;;;;;;;;;10517939;28;20044;-24
2021/08/11 18:51:51;;;;;;;0.00;0.00;;;;;;;;;;10500153;28;20443;-24
2021/08/11 18:56:54;;;;;;;0.10;0.00;;;;;;;;;;10523680;28;20032;-23
2021/08/11 19:01:57;;;;;;;0.00;0.00;;;;;;;;;;10519356;28;20483;-23
2021/08/11 19:07:01;;;;;;;0.00;0.00;;;;;;;;;;10522800;28;20044;-24
2021/08/11 19:12:04;;;;;;;0.00;0.00;;;;;;;;;;10521249;28;20508;-25
2021/08/11 19:17:08;;;;;;;0.00;0.00;;;;;;;;;;10519955;28;20431;-25
2021/08/11 19:22:19;;;;;;;0.00;0.00;;;;;;;;;;10517456;28;20048;-26
2021/08/11 19:27:22;;;;;;;0.00;0.00;;;;;;;;;;10518584;28;20115;-24
2021/08/11 19:32:26;;;;;;;0.00;0.00;;;;;;;;;;10515534;28;20055;-25
2021/08/11 19:37:30;;;;;;;0.00;0.00;;;;;;;;;;10518904;28;20404;-23
2021/08/11 19:42:33;;;;;;;0.00;0.00;;;;;;;;;;10514831;28;20090;-24
2021/08/11 19:47:37;;;;;;;0.00;0.00;;;;;;;;;;10517169;28;20158;-24
2021/08/11 19:52:42;;;;;;;0.00;0.00;;;;;;;;;;10516715;28;20540;-25
2021/08/11 19:57:45;;;;;;;0.00;0.00;;;;;;;;;;10516033;28;20059;-24
2021/08/11 20:02:48;;;;;;;0.00;0.00;;;;;;;;;;10522992;28;20058;-22
2021/08/11 20:07:53;;;;;;;0.00;0.00;;;;;;;;;;10531775;28;20039;-21
2021/08/11 20:12:56;;;;;;;0.00;0.00;;;;;;;;;;10528192;28;20047;-21
2021/08/11 20:17:59;;;;;;;0.00;0.00;;;;;;;;;;10502817;28;20088;-21
2021/08/11 20:23:03;;;;;;;0.00;0.00;;;;;;;;;;10522235;28;20036;-21
2021/08/11 20:28:06;;;;;;;0.00;0.00;;;;;;;;;;10523651;28;20493;-23
2021/08/11 20:33:09;;;;;;;0.00;0.00;;;;;;;;;;10518953;28;20043;-21
2021/08/11 20:38:13;;;;;;;0.00;0.00;;;;;;;;;;10519555;28;20040;-21
2021/08/11 20:43:16;;;;;;;0.00;0.00;;;;;;;;;;10517427;28;20051;-22
2021/08/11 20:48:19;;;;;;;0.00;0.00;;;;;;;;;;10524468;28;20067;-25
2021/08/11 20:53:23;;;;;;;0.00;0.00;;;;;;;;;;10513239;28;20047;-24
2021/08/11 20:58:26;;;;;;;0.00;0.00;;;;;;;;;;10516716;28;20516;-24
2021/08/11 21:03:29;;;;;;;0.00;0.00;;;;;;;;;;10515233;28;20052;-24
2021/08/11 21:08:34;;;;;;;0.00;0.00;;;;;;;;;;10515139;28;20119;-24
2021/08/11 21:13:40;;;;;;;0.00;0.00;;;;;;;;;;10517224;28;20040;-23
2021/08/11 21:18:43;;;;;;;0.00;0.00;;;;;;;;;;10519866;28;20132;-24
2021/08/11 21:23:47;;;;;;;0.00;0.00;;;;;;;;;;10517541;28;20044;-23
2021/08/11 21:28:51;;;;;;;0.00;0.00;;;;;;;;;;10520804;28;20213;-26
2021/08/11 21:33:54;;;;;;;0.00;0.00;;;;;;;;;;10518237;28;20036;-24
2021/08/11 21:38:59;;;;;;;0.10;0.00;;;;;;;;;;10520429;28;20036;-24
2021/08/11 21:44:02;;;;;;;0.00;0.00;;;;;;;;;;10517968;28;20109;-24
2021/08/11 21:49:06;;;;;;;0.00;0.00;;;;;;;;;;10517819;28;20114;-24
2021/08/11 21:54:11;;;;;;;0.00;0.00;;;;;;;;;;10494652;28;20051;-24
2021/08/11 21:59:14;;;;;;;0.00;0.00;;;;;;;;;;10492428;28;20048;-24
2021/08/11 22:04:17;;;;;;;0.00;0.00;;;;;;;;;;10493134;28;20068;-24
2021/08/11 22:09:22;;;;;;;0.00;0.00;;;;;;;;;;10497028;28;20047;-23
2021/08/11 22:14:25;;;;;;;0.00;0.00;;;;;;;;;;10522457;28;20048;-24
2021/08/11 22:19:28;;;;;;;0.00;0.00;;;;;;;;;;10519719;28;20043;-23
2021/08/11 22:24:33;;;;;;;0.10;0.03;;;;;;;;;;10508476;28;20055;-24
2021/08/11 22:29:36;;;;;;;0.00;0.00;;;;;;;;;;10524090;28;20040;-24
2021/08/11 22:34:40;;;;;;;0.00;0.00;;;;;;;;;;10530275;28;20083;-22
2021/08/11 22:39:44;;;;;;;0.00;0.00;;;;;;;;;;10528687;28;20499;-22
2021/08/11 22:44:48;;;;;;;0.00;0.00;;;;;;;;;;10532696;28;20056;-22
2021/08/11 22:49:51;;;;;;;0.00;0.00;;;;;;;;;;10533111;28;20055;-23
2021/08/11 22:54:56;;;;;;;0.00;0.00;;;;;;;;;;10534801;28;20058;-23
2021/08/11 22:59:59;;;;;;;0.00;0.00;;;;;;;;;;10508906;28;20056;-25
2021/08/11 23:05:02;;;;;;;0.00;0.00;;;;;;;;;;10517486;28;20109;-23
2021/08/11 23:10:07;;;;;;;0.00;0.00;;;;;;;;;;10531667;28;20048;-23
2021/08/11 23:15:10;;;;;;;0.00;0.00;;;;;;;;;;10534726;28;20052;-23
2021/08/11 23:20:14;;;;;;;0.00;0.00;;;;;;;;;;10517677;28;20060;-23
2021/08/11 23:25:19;;;;;;;0.00;0.00;;;;;;;;;;10506850;28;20044;-23
2021/08/11 23:30:22;;;;;;;0.00;0.00;;;;;;;;;;10522596;28;20052;-22
2021/08/11 23:35:25;;;;;;;0.00;0.00;;;;;;;;;;10517889;28;20043;-22
2021/08/11 23:40:30;;;;;;;0.00;0.00;;;;;;;;;;10500747;28;20397;-22
2021/08/11 23:45:34;;;;;;;0.10;0.00;;;;;;;;;;10508037;28;20151;-22
2021/08/11 23:50:37;;;;;;;0.00;0.00;;;;;;;;;;10522964;28;20405;-22
2021/08/11 23:55:41;;;;;;;0.00;0.00;;;;;;;;;;10526259;28;20048;-23
